Time;durP1;ratioP1;P1;durP2;ratioP2;P2;SDS_P1;SDS_P2;PMS_P1;PMS_P2;Temp;Humidity;BMP_temperature;BMP_pressure;BME280_temperature;BME280_humidity;BME280_pressure;Samples;Min_cycle;Max_cycle;Signal;HPM_P1;HPM_P2
2021/01/01 00:01:07;;;;;;;75.85;50.72;;;0.80;96.00;;;;;;5020885;28;20409;-82
2021/01/01 00:03:36;;;;;;;73.90;52.33;;;0.90;96.10;;;;;;5032219;28;20061;-83
2021/01/01 00:06:02;;;;;;;68.80;46.92;;;0.90;96.00;;;;;;5033417;28;20041;-83
2021/01/01 00:08:29;;;;;;;67.78;49.10;;;0.90;96.00;;;;;;5024619;28;20132;-79
2021/01/01 00:10:55;;;;;;;68.50;46.47;;;0.90;96.00;;;;;;5036036;28;20050;-81
2021/01/01 00:13:21;;;;;;;83.40;56.03;;;0.80;96.00;;;;;;5025314;28;20056;-82
2021/01/01 00:15:47;;;;;;;88.60;61.17;;;0.80;96.00;;;;;;5022608;28;20080;-82
2021/01/01 00:18:13;;;;;;;73.50;53.45;;;0.80;96.00;;;;;;5023516;28;20049;-82
2021/01/01 00:20:42;;;;;;;68.50;49.70;;;0.80;96.00;;;;;;5006941;28;20128;-82
2021/01/01 00:23:09;;;;;;;72.38;49.92;;;0.80;96.10;;;;;;5023445;28;20054;-83
2021/01/01 00:25:36;;;;;;;61.13;42.85;;;0.80;96.00;;;;;;5025009;28;20128;-83
2021/01/01 00:28:02;;;;;;;56.47;40.95;;;0.80;96.00;;;;;;5025432;28;20040;-83
2021/01/01 00:30:28;;;;;;;53.33;37.67;;;0.80;96.00;;;;;;5026928;28;20383;-82
2021/01/01 00:32:54;;;;;;;48.75;35.05;;;0.90;96.10;;;;;;5019337;28;20410;-83
2021/01/01 00:35:21;;;;;;;44.22;31.73;;;0.80;96.00;;;;;;5023653;28;20045;-83
2021/01/01 00:37:46;;;;;;;44.85;31.35;;;0.80;96.00;;;;;;5034122;28;20165;-83
2021/01/01 00:40:13;;;;;;;44.47;30.85;;;0.90;96.00;;;;;;5020746;28;20042;-84
2021/01/01 00:42:39;;;;;;;39.45;28.67;;;0.90;96.10;;;;;;5025800;28;20045;-82
2021/01/01 00:45:06;;;;;;;40.10;29.30;;;1.00;96.00;;;;;;5023355;28;20482;-83
2021/01/01 00:47:32;;;;;;;36.28;26.60;;;1.10;96.00;;;;;;5022912;28;20050;-82
2021/01/01 00:49:58;;;;;;;36.60;26.92;;;1.10;95.90;;;;;;5022035;28;20057;-82
2021/01/01 00:52:25;;;;;;;37.50;26.02;;;1.20;95.80;;;;;;5025841;28;20474;-83
2021/01/01 00:54:50;;;;;;;33.80;25.17;;;1.20;95.70;;;;;;5023050;28;20049;-83
2021/01/01 00:57:16;;;;;;;30.67;23.13;;;1.20;95.70;;;;;;5027257;28;20083;-82
2021/01/01 00:59:42;;;;;;;28.40;21.02;;;1.30;95.70;;;;;;5028270;28;20453;-80
2021/01/01 01:02:08;;;;;;;28.95;23.00;;;1.30;95.70;;;;;;5017979;28;20125;-83
2021/01/01 01:04:34;;;;;;;27.05;21.33;;;1.30;95.60;;;;;;5017473;28;20148;-83
2021/01/01 01:07:00;;;;;;;29.83;23.15;;;1.30;95.50;;;;;;5032717;28;20045;-83
2021/01/01 01:09:25;;;;;;;29.00;20.67;;;1.40;95.40;;;;;;5025074;28;20185;-82
2021/01/01 01:11:51;;;;;;;31.90;23.50;;;1.40;95.40;;;;;;5024358;28;20512;-82
2021/01/01 01:14:17;;;;;;;35.15;25.25;;;1.40;95.50;;;;;;5037182;28;20131;-83
2021/01/01 01:16:43;;;;;;;30.42;23.83;;;1.40;95.50;;;;;;5025147;28;20041;-80
2021/01/01 01:19:09;;;;;;;29.75;22.50;;;1.40;95.50;;;;;;5026059;28;20075;-83
2021/01/01 01:21:35;;;;;;;35.30;27.33;;;1.40;95.50;;;;;;5021138;28;20057;-82
2021/01/01 01:24:01;;;;;;;30.88;24.38;;;1.40;95.50;;;;;;5010327;28;20064;-83
2021/01/01 01:26:27;;;;;;;35.97;24.85;;;1.40;95.50;;;;;;5037813;28;20050;-82
2021/01/01 01:28:53;;;;;;;31.42;24.00;;;1.40;95.60;;;;;;5023813;28;20049;-83
2021/01/01 01:31:19;;;;;;;27.13;20.90;;;1.50;95.60;;;;;;5025845;28;20061;-83
2021/01/01 01:33:45;;;;;;;28.85;19.95;;;1.50;95.60;;;;;;5025335;28;20064;-81
2021/01/01 01:36:11;;;;;;;26.05;19.52;;;1.60;95.50;;;;;;5014642;28;20061;-81
2021/01/01 01:38:37;;;;;;;27.80;20.08;;;1.50;95.40;;;;;;5035062;28;20048;-83
2021/01/01 01:41:03;;;;;;;25.98;20.25;;;1.60;95.40;;;;;;5026951;28;20183;-83
2021/01/01 01:43:29;;;;;;;27.63;21.15;;;1.60;95.40;;;;;;5024557;28;20378;-82
2021/01/01 01:45:56;;;;;;;29.02;21.50;;;1.60;95.40;;;;;;5026713;28;20444;-82
2021/01/01 01:48:26;;;;;;;27.92;21.30;;;1.50;95.50;;;;;;5026374;28;20048;-82
2021/01/01 01:50:52;;;;;;;30.55;23.85;;;1.50;95.50;;;;;;5028535;28;20042;-81
2021/01/01 01:53:19;;;;;;;32.33;26.60;;;1.50;95.50;;;;;;5031032;28;20493;-82
2021/01/01 01:55:46;;;;;;;32.47;26.77;;;1.50;95.50;;;;;;5043657;28;20072;-80
2021/01/01 01:58:12;;;;;;;35.25;26.70;;;1.40;95.50;;;;;;5030009;28;20516;-82
2021/01/01 02:03:05;;;;;;;36.75;29.52;;;1.40;95.60;;;;;;5028783;28;20654;-82
2021/01/01 02:05:30;;;;;;;39.78;30.67;;;1.30;95.60;;;;;;5022314;28;20045;-81
2021/01/01 02:07:56;;;;;;;47.45;37.05;;;1.30;95.60;;;;;;5020040;28;20533;-82
2021/01/01 02:10:22;;;;;;;44.55;35.92;;;1.30;95.60;;;;;;5028777;28;20049;-82
2021/01/01 02:12:48;;;;;;;46.88;38.67;;;1.40;95.60;;;;;;5027318;28;20878;-81
2021/01/01 02:15:15;;;;;;;56.22;43.70;;;1.30;95.60;;;;;;5029082;28;20501;-81
2021/01/01 02:17:42;;;;;;;63.90;54.45;;;1.30;95.70;;;;;;5029526;28;20042;-82
2021/01/01 02:20:09;;;;;;;67.15;55.03;;;1.30;95.70;;;;;;5023299;28;20056;-82
2021/01/01 02:22:39;;;;;;;37.78;30.08;;;1.30;95.70;;;;;;5017040;28;20053;-82
2021/01/01 02:25:10;;;;;;;32.15;24.63;;;1.30;95.60;;;;;;5041443;28;20048;-82
2021/01/01 02:27:37;;;;;;;28.80;21.05;;;1.30;95.60;;;;;;5034675;28;20061;-82
2021/01/01 02:30:04;;;;;;;27.92;21.35;;;1.30;95.60;;;;;;5026793;28;20049;-82
2021/01/01 02:32:30;;;;;;;28.58;20.30;;;1.40;95.60;;;;;;5028368;28;20385;-81
2021/01/01 02:34:57;;;;;;;28.73;19.67;;;1.40;95.60;;;;;;5025784;28;20128;-82
2021/01/01 02:37:23;;;;;;;27.77;19.95;;;1.50;95.60;;;;;;5040169;28;20042;-82
2021/01/01 02:39:49;;;;;;;29.55;22.05;;;1.50;95.80;;;;;;5028543;28;20049;-82
2021/01/01 02:42:16;;;;;;;25.73;20.23;;;1.60;95.50;;;;;;5018308;28;20481;-82
2021/01/01 02:44:42;;;;;;;26.42;18.48;;;1.50;95.50;;;;;;5037711;28;20037;-80
2021/01/01 02:47:08;;;;;;;25.73;19.10;;;1.50;95.40;;;;;;5026947;28;20107;-82
2021/01/01 02:49:34;;;;;;;27.67;21.05;;;1.50;95.50;;;;;;5028559;28;20115;-82
2021/01/01 02:52:01;;;;;;;23.38;18.77;;;1.60;95.50;;;;;;5029072;28;20068;-82
2021/01/01 02:54:27;;;;;;;24.38;18.50;;;1.60;95.50;;;;;;5027766;28;20541;-81
2021/01/01 02:56:53;;;;;;;25.42;18.75;;;1.60;95.60;;;;;;5026764;28;20047;-82
2021/01/01 02:59:19;;;;;;;23.95;18.52;;;1.60;95.60;;;;;;5025836;28;20042;-82
2021/01/01 03:01:46;;;;;;;26.83;19.73;;;1.60;95.60;;;;;;5027001;28;20108;-80
2021/01/01 03:04:12;;;;;;;23.88;18.27;;;1.70;95.60;;;;;;5028196;28;20064;-82
2021/01/01 03:06:38;;;;;;;23.25;18.20;;;1.60;95.50;;;;;;5019984;28;20487;-81
2021/01/01 03:09:04;;;;;;;25.80;18.42;;;1.60;95.60;;;;;;5025627;28;20053;-82
2021/01/01 03:11:30;;;;;;;24.13;17.70;;;1.60;95.60;;;;;;5034072;28;20033;-82
2021/01/01 03:13:56;;;;;;;22.85;16.65;;;1.50;95.50;;;;;;5029165;28;20071;-82
2021/01/01 03:16:22;;;;;;;25.38;18.27;;;1.50;95.60;;;;;;5019360;28;20153;-82
2021/01/01 03:18:48;;;;;;;23.98;17.75;;;1.50;95.60;;;;;;5024823;28;20049;-80
2021/01/01 03:21:16;;;;;;;26.55;20.67;;;1.50;95.60;;;;;;5025709;28;20051;-82
2021/01/01 03:23:42;;;;;;;23.10;17.13;;;1.50;95.70;;;;;;5024341;28;20048;-82
2021/01/01 03:26:08;;;;;;;23.42;17.45;;;1.50;95.60;;;;;;5022584;28;20041;-80
2021/01/01 03:28:34;;;;;;;23.75;17.13;;;1.50;95.50;;;;;;5018707;28;20187;-80
2021/01/01 03:31:01;;;;;;;25.08;17.98;;;1.50;95.50;;;;;;5006817;28;20056;-78
2021/01/01 03:33:27;;;;;;;24.15;17.90;;;1.50;95.50;;;;;;5025848;28;20045;-79
2021/01/01 03:35:53;;;;;;;23.20;17.60;;;1.40;95.50;;;;;;5022849;28;20045;-79
2021/01/01 03:38:19;;;;;;;24.25;18.48;;;1.40;95.50;;;;;;5032583;28;20393;-79
2021/01/01 03:40:48;;;;;;;24.92;18.50;;;1.40;95.50;;;;;;5025399;28;20045;-79
2021/01/01 03:43:15;;;;;;;28.63;21.25;;;1.40;95.50;;;;;;5039669;28;20068;-79
2021/01/01 03:45:40;;;;;;;35.63;26.27;;;1.40;95.50;;;;;;5028588;28;20045;-79
2021/01/01 03:48:07;;;;;;;32.53;24.70;;;1.30;95.50;;;;;;5025037;28;20099;-79
2021/01/01 03:50:33;;;;;;;29.85;21.25;;;1.30;95.50;;;;;;5026386;28;20057;-79
2021/01/01 03:52:59;;;;;;;29.90;20.85;;;1.20;95.50;;;;;;5027871;28;20101;-78
2021/01/01 03:55:26;;;;;;;28.15;18.65;;;1.20;95.50;;;;;;5042800;28;20489;-79
2021/01/01 03:57:51;;;;;;;25.63;18.23;;;1.20;95.60;;;;;;5027107;28;20041;-79
2021/01/01 04:00:18;;;;;;;24.63;17.50;;;1.10;95.60;;;;;;5028119;28;20057;-80
2021/01/01 04:02:44;;;;;;;26.08;20.08;;;1.10;95.70;;;;;;5025365;28;20041;-79
2021/01/01 04:05:10;;;;;;;27.80;18.42;;;1.00;95.70;;;;;;5026423;28;20103;-79
2021/01/01 04:07:37;;;;;;;26.40;18.35;;;1.10;95.70;;;;;;5027905;28;20047;-79
2021/01/01 04:10:03;;;;;;;23.10;16.75;;;1.10;95.70;;;;;;5025432;28;20041;-79
2021/01/01 04:12:29;;;;;;;25.77;17.63;;;1.10;95.70;;;;;;5043021;28;20069;-78
2021/01/01 04:14:54;;;;;;;22.77;16.48;;;1.10;95.60;;;;;;5030840;28;20540;-79
2021/01/01 04:17:20;;;;;;;23.75;16.33;;;1.10;95.70;;;;;;5014890;28;20505;-79
2021/01/01 04:19:47;;;;;;;24.38;17.83;;;1.10;95.70;;;;;;5028776;28;20137;-79
2021/01/01 04:22:12;;;;;;;24.80;17.15;;;1.10;95.70;;;;;;5025084;28;20133;-79
2021/01/01 04:24:38;;;;;;;22.27;16.00;;;1.20;95.70;;;;;;5043283;28;20053;-79
2021/01/01 04:27:04;;;;;;;24.42;17.45;;;1.10;95.70;;;;;;5018254;28;20482;-80
2021/01/01 04:29:30;;;;;;;22.65;16.90;;;1.10;95.70;;;;;;5020689;28;20052;-79
2021/01/01 04:31:56;;;;;;;24.52;17.75;;;1.10;95.70;;;;;;5025416;28;20049;-79
2021/01/01 04:34:22;;;;;;;22.17;15.65;;;1.10;95.70;;;;;;5039172;28;20068;-79
2021/01/01 04:36:47;;;;;;;24.42;15.82;;;1.00;95.70;;;;;;5022206;28;20128;-79
2021/01/01 04:39:13;;;;;;;24.30;16.77;;;1.00;95.80;;;;;;5031569;28;20512;-79
2021/01/01 04:41:41;;;;;;;20.98;15.85;;;0.90;95.70;;;;;;5027726;28;20056;-79
2021/01/01 04:44:07;;;;;;;23.42;16.75;;;0.90;95.80;;;;;;5025815;28;20041;-79
2021/01/01 04:46:36;;;;;;;20.73;15.77;;;0.90;95.80;;;;;;5026898;28;20115;-79
2021/01/01 04:49:02;;;;;;;23.67;16.52;;;0.90;95.80;;;;;;5023739;28;20519;-79
2021/01/01 04:51:28;;;;;;;24.20;16.42;;;0.90;95.90;;;;;;5027252;28;20045;-79
2021/01/01 04:53:57;;;;;;;23.63;15.48;;;0.90;95.90;;;;;;5026730;28;20049;-79
2021/01/01 04:56:24;;;;;;;21.55;15.13;;;0.90;95.90;;;;;;5025503;28;20069;-79
2021/01/01 04:58:51;;;;;;;23.58;16.08;;;0.90;95.80;;;;;;5023891;28;20042;-79
2021/01/01 05:01:16;;;;;;;20.60;15.30;;;0.90;95.80;;;;;;5025380;28;20138;-79
2021/01/01 05:03:42;;;;;;;22.45;15.65;;;0.80;95.80;;;;;;5024750;28;20124;-79
2021/01/01 05:06:08;;;;;;;23.35;16.40;;;0.90;95.80;;;;;;5027075;28;20053;-79
2021/01/01 05:08:34;;;;;;;25.65;18.50;;;0.80;95.80;;;;;;5026070;28;20049;-79
2021/01/01 05:11:09;;;;;;;27.77;19.00;;;0.80;95.80;;;;;;5036519;28;20386;-79
2021/01/01 05:13:35;;;;;;;;;;;0.80;95.80;;;;;;5027065;28;20068;-78
2021/01/01 05:16:01;;;;;;;23.70;16.98;;;0.80;95.80;;;;;;5024635;28;20380;-78
2021/01/01 05:18:28;;;;;;;23.60;17.60;;;0.80;95.90;;;;;;5026760;28;20053;-79
2021/01/01 05:20:56;;;;;;;24.38;18.45;;;0.80;95.90;;;;;;5026441;28;20057;-79
2021/01/01 05:23:29;;;;;;;27.73;19.40;;;0.80;95.80;;;;;;5026205;28;20099;-78
2021/01/01 05:26:11;;;;;;;23.80;16.67;;;0.80;95.80;;;;;;5024202;28;20046;-79
2021/01/01 05:28:49;;;;;;;25.10;17.65;;;0.90;95.80;;;;;;5019917;28;20045;-79
2021/01/01 05:31:26;;;;;;;22.83;16.25;;;0.90;95.90;;;;;;5029679;28;20111;-79
2021/01/01 05:34:01;;;;;;;23.88;16.63;;;0.90;95.80;;;;;;5028680;28;20135;-78
2021/01/01 05:36:41;;;;;;;23.40;16.50;;;0.80;95.80;;;;;;5027193;28;20033;-79
2021/01/01 05:39:20;;;;;;;24.92;17.75;;;0.80;96.00;;;;;;5040039;28;20053;-79
2021/01/01 05:41:48;;;;;;;29.60;18.70;;;0.80;95.90;;;;;;5029413;28;20379;-79
2021/01/01 05:44:22;;;;;;;20.58;15.35;;;0.80;95.90;;;;;;5022440;28;20195;-79
2021/01/01 05:47:07;;;;;;;18.48;14.98;;;0.80;95.90;;;;;;5030125;28;20167;-79
2021/01/01 05:49:38;;;;;;;19.45;14.63;;;0.80;95.90;;;;;;5027381;28;20049;-79
2021/01/01 05:52:11;;;;;;;21.35;15.68;;;0.70;95.80;;;;;;5026306;28;20068;-79
2021/01/01 05:54:39;;;;;;;19.98;15.40;;;0.70;95.90;;;;;;5029967;28;20045;-79
2021/01/01 05:57:07;;;;;;;21.17;15.95;;;0.60;96.10;;;;;;5029005;28;20460;-79
2021/01/01 05:59:35;;;;;;;23.40;15.35;;;0.60;95.80;;;;;;5027332;28;20041;-79
2021/01/01 06:02:02;;;;;;;23.00;16.38;;;0.60;95.90;;;;;;5026014;28;20065;-79
2021/01/01 06:04:28;;;;;;;26.70;17.35;;;0.50;95.80;;;;;;5030303;28;20401;-79
2021/01/01 06:06:54;;;;;;;23.63;16.75;;;0.50;95.80;;;;;;5028847;28;20140;-79
2021/01/01 06:09:21;;;;;;;23.60;17.40;;;0.50;95.80;;;;;;5027167;28;20054;-79
2021/01/01 06:12:10;;;;;;;27.92;18.75;;;0.40;95.80;;;;;;5028375;28;20472;-79
2021/01/01 06:14:46;;;;;;;28.15;18.05;;;0.40;95.80;;;;;;5018053;28;20049;-79
2021/01/01 06:17:11;;;;;;;24.00;15.93;;;0.40;95.80;;;;;;5026597;28;20114;-79
2021/01/01 06:19:40;;;;;;;25.60;17.90;;;0.40;95.80;;;;;;5020865;28;20065;-79
2021/01/01 06:22:30;;;;;;;22.77;16.65;;;0.40;95.90;;;;;;5029299;28;20132;-79
2021/01/01 06:24:58;;;;;;;23.90;15.25;;;0.40;95.90;;;;;;5027088;28;20072;-79
2021/01/01 06:27:28;;;;;;;21.77;15.88;;;0.40;95.90;;;;;;5028885;28;20041;-79
2021/01/01 06:30:01;;;;;;;32.35;18.52;;;0.30;95.80;;;;;;5027655;28;20049;-79
2021/01/01 06:32:32;;;;;;;28.05;18.20;;;0.30;95.90;;;;;;5027639;28;20053;-79
2021/01/01 06:35:15;;;;;;;23.23;15.68;;;0.30;95.90;;;;;;5024149;28;20519;-79
2021/01/01 06:37:47;;;;;;;28.05;18.50;;;0.40;96.00;;;;;;5018826;28;20057;-79
2021/01/01 06:40:22;;;;;;;20.98;15.15;;;0.40;95.90;;;;;;5028033;28;20056;-79
2021/01/01 06:43:07;;;;;;;19.55;13.45;;;0.40;95.90;;;;;;5028992;28;20053;-79
2021/01/01 06:45:47;;;;;;;17.92;12.65;;;0.40;95.90;;;;;;5028001;28;20050;-78
2021/01/01 06:48:14;;;;;;;21.38;13.95;;;0.30;95.90;;;;;;5028327;28;20059;-79
2021/01/01 06:50:42;;;;;;;20.67;14.50;;;0.40;95.90;;;;;;5029307;28;20160;-79
2021/01/01 06:53:08;;;;;;;20.45;13.88;;;0.30;95.90;;;;;;5026841;28;20048;-79
2021/01/01 06:55:38;;;;;;;27.02;17.58;;;0.30;95.90;;;;;;5027685;28;20053;-79
2021/01/01 06:58:05;;;;;;;24.92;16.58;;;0.30;96.00;;;;;;5028084;28;20429;-79
2021/01/01 07:00:55;;;;;;;34.97;19.55;;;0.30;96.00;;;;;;5037222;28;20053;-79
2021/01/01 07:03:30;;;;;;;30.08;18.08;;;0.30;96.00;;;;;;5022275;28;20488;-79
2021/01/01 07:06:04;;;;;;;24.00;15.75;;;0.30;96.00;;;;;;5028640;28;20053;-79
2021/01/01 07:08:39;;;;;;;23.92;13.57;;;0.40;96.00;;;;;;5024422;28;20049;-79
2021/01/01 07:11:08;;;;;;;22.35;12.63;;;0.40;96.00;;;;;;5018112;28;20511;-78
2021/01/01 07:13:44;;;;;;;25.35;13.98;;;0.40;96.20;;;;;;5019865;28;20050;-79
2021/01/01 07:16:10;;;;;;;17.27;11.75;;;0.40;96.00;;;;;;5026645;28;20061;-79
2021/01/01 07:18:36;;;;;;;21.52;11.75;;;0.40;96.00;;;;;;5020800;28;20042;-85
2021/01/01 07:21:03;;;;;;;17.90;11.18;;;0.40;96.00;;;;;;5027779;28;20375;-83
2021/01/01 07:23:30;;;;;;;18.63;11.48;;;0.40;96.00;;;;;;5028031;28;20057;-82
2021/01/01 07:25:57;;;;;;;31.77;13.60;;;0.40;96.10;;;;;;5041035;28;20402;-81
2021/01/01 07:28:24;;;;;;;23.48;13.32;;;0.40;96.10;;;;;;5026642;28;20465;-80
2021/01/01 07:30:50;;;;;;;22.27;13.93;;;0.50;96.20;;;;;;5039787;28;20052;-83
2021/01/01 07:33:42;;;;;;;29.58;17.20;;;0.50;96.20;;;;;;5026105;28;20045;-83
2021/01/01 07:36:10;;;;;;;23.70;15.68;;;0.40;96.20;;;;;;5009509;28;20046;-83
2021/01/01 07:38:40;;;;;;;42.70;24.52;;;0.50;96.20;;;;;;5034847;28;20055;-83
2021/01/01 07:41:07;;;;;;;26.25;18.45;;;0.50;96.20;;;;;;5026706;28;20049;-83
2021/01/01 07:43:34;;;;;;;40.50;26.50;;;0.50;96.20;;;;;;5029163;28;20040;-82
2021/01/01 07:46:05;;;;;;;24.15;17.15;;;0.40;96.20;;;;;;5026864;28;20057;-83
2021/01/01 07:48:31;;;;;;;26.17;17.73;;;0.40;96.30;;;;;;5041107;28;20064;-83
2021/01/01 07:51:02;;;;;;;23.73;16.55;;;0.40;96.30;;;;;;5026382;28;20490;-81
2021/01/01 07:53:28;;;;;;;25.30;14.65;;;0.40;96.50;;;;;;5027893;28;20563;-82
2021/01/01 07:55:59;;;;;;;16.75;9.60;;;0.40;96.30;;;;;;5026855;28;20069;-83
2021/01/01 07:58:27;;;;;;;15.27;8.90;;;0.40;96.40;;;;;;5026691;28;20057;-83
2021/01/01 08:01:00;;;;;;;15.13;8.48;;;0.50;96.40;;;;;;5024795;28;20053;-82
2021/01/01 08:03:26;;;;;;;11.52;7.63;;;0.50;96.40;;;;;;5025738;28;20075;-83
2021/01/01 08:05:53;;;;;;;12.57;7.57;;;0.60;96.40;;;;;;5024122;28;20045;-83
2021/01/01 08:08:23;;;;;;;11.70;6.53;;;0.60;96.40;;;;;;5025745;28;20053;-83
2021/01/01 08:10:51;;;;;;;11.23;6.60;;;0.70;96.40;;;;;;5026805;28;20060;-83
2021/01/01 08:13:19;;;;;;;11.93;7.93;;;0.70;96.40;;;;;;5024109;28;20353;-83
2021/01/01 08:15:46;;;;;;;20.10;12.15;;;0.70;96.40;;;;;;5016968;28;20515;-81
2021/01/01 08:18:20;;;;;;;12.35;7.60;;;0.70;96.50;;;;;;5026250;28;20045;-83
2021/01/01 08:20:55;;;;;;;11.15;7.32;;;0.70;96.50;;;;;;5026075;28;20041;-83
2021/01/01 08:23:21;;;;;;;13.63;7.47;;;0.80;96.50;;;;;;5026194;28;20053;-83
2021/01/01 08:25:48;;;;;;;11.57;8.48;;;0.80;96.50;;;;;;5028464;28;20057;-83
2021/01/01 08:28:23;;;;;;;12.02;8.50;;;0.90;96.60;;;;;;5027064;28;20049;-83
2021/01/01 08:31:00;;;;;;;13.05;8.00;;;0.90;96.50;;;;;;5026660;28;20457;-82
2021/01/01 08:33:30;;;;;;;10.95;6.60;;;0.90;96.50;;;;;;5027068;28;20055;-84
2021/01/01 08:36:00;;;;;;;10.50;6.97;;;0.90;96.60;;;;;;5025317;28;20398;-83
2021/01/01 08:38:26;;;;;;;12.68;6.68;;;0.90;96.60;;;;;;5027930;28;20060;-83
2021/01/01 08:40:54;;;;;;;11.93;8.15;;;1.00;96.60;;;;;;5025923;28;20401;-83
2021/01/01 08:43:20;;;;;;;14.55;9.73;;;1.00;96.60;;;;;;5023215;28;20061;-83
2021/01/01 08:45:46;;;;;;;14.55;9.55;;;1.00;96.60;;;;;;5014518;28;20068;-83
2021/01/01 08:48:12;;;;;;;10.80;7.32;;;1.10;96.90;;;;;;5025389;28;20490;-84
2021/01/01 08:50:49;;;;;;;8.82;6.30;;;1.10;96.60;;;;;;5025800;28;20053;-84
2021/01/01 08:53:17;;;;;;;9.25;5.57;;;1.10;96.60;;;;;;5025191;28;20045;-82
2021/01/01 08:55:43;;;;;;;7.75;4.60;;;1.10;96.60;;;;;;5023067;28;20509;-83
2021/01/01 08:58:15;;;;;;;7.68;4.35;;;1.20;96.60;;;;;;5024545;28;20079;-83
2021/01/01 09:00:45;;;;;;;5.10;3.55;;;1.20;96.60;;;;;;5029519;28;20060;-83
2021/01/01 09:03:21;;;;;;;5.88;3.10;;;1.30;96.60;;;;;;5028580;28;20046;-83
2021/01/01 09:05:55;;;;;;;6.10;2.97;;;1.30;96.60;;;;;;5027466;28;20052;-83
2021/01/01 09:08:24;;;;;;;4.50;2.80;;;1.40;96.60;;;;;;5029610;28;20045;-84
2021/01/01 09:10:54;;;;;;;4.75;3.47;;;1.40;96.50;;;;;;5029727;28;20060;-84
2021/01/01 09:13:26;;;;;;;8.23;4.47;;;1.50;96.50;;;;;;5028187;28;20065;-84
2021/01/01 09:16:11;;;;;;;6.88;4.10;;;1.60;96.60;;;;;;5028620;28;20053;-84
2021/01/01 09:18:37;;;;;;;6.27;3.90;;;1.60;96.50;;;;;;5017811;28;20042;-83
2021/01/01 09:21:11;;;;;;;4.75;2.85;;;1.70;96.50;;;;;;5029893;28;20088;-82
2021/01/01 09:23:38;;;;;;;5.20;3.53;;;1.70;96.50;;;;;;5031248;28;20096;-84
2021/01/01 09:26:05;;;;;;;6.10;3.70;;;1.70;96.50;;;;;;5024882;28;20064;-81
2021/01/01 09:28:31;;;;;;;5.63;3.28;;;1.80;96.50;;;;;;5013147;28;20397;-83
2021/01/01 09:30:57;;;;;;;5.57;3.58;;;1.90;96.60;;;;;;5016947;28;20056;-85
2021/01/01 09:33:23;;;;;;;6.13;2.80;;;1.90;96.50;;;;;;5028852;28;20053;-83
2021/01/01 09:35:49;;;;;;;7.28;3.90;;;1.90;96.50;;;;;;5027082;28;20038;-83
2021/01/01 09:38:15;;;;;;;5.22;3.88;;;2.00;96.60;;;;;;5035383;28;20094;-83
2021/01/01 09:40:41;;;;;;;4.38;2.63;;;2.00;96.50;;;;;;5029261;28;20397;-81
2021/01/01 09:43:07;;;;;;;5.93;3.78;;;2.00;96.50;;;;;;5029823;28;20436;-83
2021/01/01 09:45:37;;;;;;;4.55;3.22;;;2.00;96.50;;;;;;5028566;28;20091;-82
2021/01/01 09:48:04;;;;;;;7.72;3.30;;;2.00;96.50;;;;;;5028630;28;20037;-81
2021/01/01 09:50:31;;;;;;;5.53;3.40;;;2.10;96.50;;;;;;5032225;28;20048;-83
2021/01/01 09:52:57;;;;;;;6.18;4.05;;;2.10;96.50;;;;;;5029419;28;20053;-83
2021/01/01 09:55:23;;;;;;;5.82;4.07;;;2.20;96.50;;;;;;5031117;28;20045;-84
2021/01/01 09:57:49;;;;;;;5.60;4.55;;;2.20;96.50;;;;;;5039049;28;20599;-83
2021/01/01 10:00:17;;;;;;;6.82;4.80;;;2.30;96.50;;;;;;5029801;28;20045;-83
2021/01/01 10:02:43;;;;;;;6.38;4.45;;;2.30;96.50;;;;;;5026756;28;20049;-81
2021/01/01 10:05:10;;;;;;;6.57;4.10;;;2.40;96.50;;;;;;5023477;28;20535;-82
2021/01/01 10:07:37;;;;;;;7.15;4.10;;;2.40;96.60;;;;;;5029155;28;20049;-84
2021/01/01 10:10:07;;;;;;;4.75;3.40;;;2.40;96.60;;;;;;5028133;28;20038;-83
2021/01/01 10:12:33;;;;;;;4.30;3.25;;;2.40;96.60;;;;;;5028966;28;20045;-83
2021/01/01 10:14:59;;;;;;;6.60;4.10;;;2.40;96.60;;;;;;5028212;28;20060;-83
2021/01/01 10:17:27;;;;;;;5.32;4.03;;;2.40;96.60;;;;;;5028707;28;20056;-84
2021/01/01 10:19:53;;;;;;;6.03;3.47;;;2.40;96.60;;;;;;5027456;28;20049;-83
2021/01/01 10:22:19;;;;;;;5.38;3.83;;;2.40;96.60;;;;;;5029703;28;20099;-84
2021/01/01 10:24:45;;;;;;;4.80;3.63;;;2.40;96.50;;;;;;5023296;28;20460;-81
2021/01/01 10:27:13;;;;;;;5.55;3.28;;;2.50;96.50;;;;;;5027898;28;20038;-84
2021/01/01 10:29:39;;;;;;;6.80;4.90;;;2.50;96.50;;;;;;5029279;28;20049;-84
2021/01/01 10:32:10;;;;;;;6.95;4.15;;;2.50;96.50;;;;;;5025263;28;20049;-83
2021/01/01 10:34:41;;;;;;;5.80;4.07;;;2.60;96.50;;;;;;5025371;28;20052;-84
2021/01/01 10:37:06;;;;;;;4.75;3.40;;;2.60;96.50;;;;;;5011360;28;20569;-84
2021/01/01 10:39:32;;;;;;;4.03;2.88;;;2.60;96.50;;;;;;5030372;28;20125;-84
2021/01/01 10:41:58;;;;;;;5.43;3.00;;;2.60;96.40;;;;;;5028171;28;20075;-88
2021/01/01 10:44:24;;;;;;;6.18;4.32;;;2.70;96.40;;;;;;5026539;28;20037;-86
2021/01/01 10:46:52;;;;;;;6.93;4.93;;;2.70;96.40;;;;;;5043778;28;20054;-87
2021/01/01 10:49:25;;;;;;;9.82;5.28;;;2.70;96.30;;;;;;5028513;28;20045;-85
2021/01/01 10:51:51;;;;;;;7.25;5.10;;;2.70;96.20;;;;;;5028574;28;20100;-87
2021/01/01 10:54:17;;;;;;;5.45;4.10;;;2.80;96.20;;;;;;5027626;28;20069;-87
2021/01/01 10:56:46;;;;;;;6.22;4.50;;;2.80;96.10;;;;;;5038226;28;20061;-84
2021/01/01 10:59:12;;;;;;;4.93;4.05;;;2.90;96.10;;;;;;5027850;28;20053;-85
2021/01/01 11:01:38;;;;;;;5.60;3.55;;;3.00;96.00;;;;;;5026752;28;20390;-87
2021/01/01 11:04:04;;;;;;;3.05;2.15;;;3.10;96.00;;;;;;5025236;28;20087;-86
2021/01/01 11:06:39;;;;;;;4.05;2.40;;;3.20;95.90;;;;;;5028480;28;20045;-86
2021/01/01 11:09:06;;;;;;;3.35;2.17;;;3.20;95.90;;;;;;5026709;28;20045;-87
2021/01/01 11:11:32;;;;;;;3.83;2.30;;;3.20;95.80;;;;;;5026350;28;20049;-84
2021/01/01 11:14:23;;;;;;;2.70;2.00;;;3.30;95.90;;;;;;5025309;28;20470;-86
2021/01/01 12:25:50;;;;;;;3.47;2.60;;;4.80;95.00;;;;;;5025741;28;20057;-83
2021/01/01 12:28:17;;;;;;;3.65;2.95;;;4.80;95.00;;;;;;5020398;28;20406;-84
2021/01/01 12:30:43;;;;;;;3.75;2.70;;;4.80;95.00;;;;;;5035509;28;20055;-84
2021/01/01 12:33:10;;;;;;;4.97;3.60;;;4.70;94.90;;;;;;5017642;28;20049;-83
2021/01/01 12:35:37;;;;;;;5.13;3.33;;;4.70;94.90;;;;;;5024361;28;20057;-84
2021/01/01 12:38:05;;;;;;;4.95;3.60;;;4.70;95.00;;;;;;5035224;28;20134;-85
2021/01/01 12:40:31;;;;;;;3.22;2.28;;;4.80;95.00;;;;;;5029714;28;20136;-86
2021/01/01 12:43:01;;;;;;;5.00;3.80;;;4.70;95.00;;;;;;5023497;28;20095;-86
2021/01/01 12:45:27;;;;;;;2.40;1.92;;;4.80;94.90;;;;;;5014256;28;20064;-84
2021/01/01 12:47:53;;;;;;;4.25;2.90;;;4.80;94.90;;;;;;5028060;28;20128;-84
2021/01/01 12:50:20;;;;;;;4.40;4.00;;;4.90;94.90;;;;;;5017193;28;20561;-86
2021/01/01 12:52:56;;;;;;;5.03;4.50;;;4.80;94.80;;;;;;5027396;28;20041;-86
2021/01/01 12:55:22;;;;;;;4.65;4.20;;;4.90;94.80;;;;;;5033558;28;20069;-87
2021/01/01 12:57:49;;;;;;;3.80;2.85;;;4.90;94.80;;;;;;5023666;28;20053;-84
2021/01/01 13:00:16;;;;;;;3.20;2.90;;;4.90;94.70;;;;;;5012036;28;20057;-85
2021/01/01 13:02:42;;;;;;;5.43;2.90;;;4.90;94.80;;;;;;5027036;28;20076;-87
2021/01/01 13:05:08;;;;;;;3.15;2.70;;;4.90;94.80;;;;;;5023325;28;20140;-87
2021/01/01 13:07:34;;;;;;;2.97;2.47;;;5.00;94.80;;;;;;5021640;28;21339;-87
2021/01/01 13:10:01;;;;;;;3.47;2.92;;;5.00;94.90;;;;;;5017267;28;20041;-86
2021/01/01 13:12:26;;;;;;;2.80;2.30;;;5.00;94.70;;;;;;5014770;28;20045;-88
2021/01/01 13:14:52;;;;;;;3.42;2.70;;;5.00;94.60;;;;;;5027014;28;20053;-86
2021/01/01 13:17:18;;;;;;;5.57;3.58;;;5.00;94.50;;;;;;5021424;28;20612;-87
2021/01/01 13:19:44;;;;;;;5.50;4.30;;;5.00;94.50;;;;;;5021332;28;20044;-82
2021/01/01 13:22:10;;;;;;;6.50;4.35;;;5.00;94.50;;;;;;5012639;28;20041;-85
2021/01/01 13:24:36;;;;;;;4.07;3.65;;;5.00;94.50;;;;;;5018606;28;20084;-85
2021/01/01 13:27:01;;;;;;;4.53;2.90;;;4.90;94.50;;;;;;5016305;28;20402;-84
2021/01/01 13:29:28;;;;;;;3.80;2.30;;;4.90;94.50;;;;;;5022549;28;20093;-85
2021/01/01 13:31:53;;;;;;;3.05;2.58;;;4.90;94.50;;;;;;5019401;28;20528;-85
2021/01/01 13:34:21;;;;;;;4.10;3.70;;;5.00;94.50;;;;;;5016069;28;21438;-84
2021/01/01 13:36:53;;;;;;;3.65;2.30;;;5.00;94.50;;;;;;5026611;28;20057;-86
2021/01/01 13:39:19;;;;;;;3.55;2.45;;;5.10;94.40;;;;;;5019864;28;20045;-85
2021/01/01 13:41:45;;;;;;;2.97;1.90;;;5.20;94.00;;;;;;5022024;28;20140;-86
2021/01/01 13:44:10;;;;;;;2.10;1.73;;;5.30;93.80;;;;;;5023513;28;20745;-86
2021/01/01 13:46:37;;;;;;;2.00;1.67;;;5.30;93.80;;;;;;5025542;28;20049;-86
2021/01/01 13:49:04;;;;;;;3.10;1.92;;;5.40;93.60;;;;;;5023898;28;20055;-85
2021/01/01 13:51:32;;;;;;;2.30;1.90;;;5.50;93.40;;;;;;5024335;28;20049;-83
2021/01/01 13:53:58;;;;;;;4.03;2.30;;;5.50;93.40;;;;;;5025534;28;20128;-84
2021/01/01 13:56:25;;;;;;;4.47;3.00;;;5.60;93.30;;;;;;5026120;28;20069;-86
2021/01/01 13:58:51;;;;;;;3.17;2.40;;;5.60;93.10;;;;;;5020887;28;20041;-82